»·PEaware :: SWA1240 KLAS-KOAK

SWA1240 :: KLAS-KOAK

FLIGHT INFORMATION

Flight Status: Arrived
Operator:
Southwest Airlines
More flights by this operator :: More flights under this callsign
Pilot: Dave P. (45)
Aircraft: BOEING 737-700
(B737)
More flights by this aircraft type
Origin: KLAS McCarran Intl
United States
Destination: KOAK Metro Oakland Intl
United States
More flights between these airports :: More routes between these airports
Route: SHEAD1 KENNO RUSME OAKES2
File this flight plan on PilotEdge
Remarks: PBN / A1B1C1D1S1S2 DOF / 171125 REG / N737PM EET / KZOA0024 OPR / SWA PER / C RMK / TCAS SIMBRIEF
Altitude:
(Current/Filed)
38,000ft
Speed:
(Current/Filed)
453kts
Departed: 25-Nov-17 08:17 AM
Arrived: 25-Nov-17 09:28 AM
Distance/Time
Traveled:
353nm/1:11
Distance/Time
To Go:
Arrived

Flight Plot

Page will automatically refresh every two minutes.

Flight plan parsing failed; only flown route is shown


Map Options




Map Legend


Flown Route
Filed Route
Departure Airport
Arrival Airport
Navaid (VOR, NDB)
Fix

Horizontal Profiles

Position Reports

Time Latitude Longitude Heading Altitude Ground
Speed
25-Nov-17 08:04 36.079818 -115.147026 62 2188ft 0kts
25-Nov-17 08:05 36.079818 -115.147026 62 2188ft 0kts
25-Nov-17 08:06 36.079818 -115.147026 62 2188ft 0kts
25-Nov-17 08:07 36.079818 -115.147026 62 2188ft 0kts
25-Nov-17 08:08 36.079818 -115.147026 62 2188ft 0kts
25-Nov-17 08:09 36.079818 -115.147026 62 2188ft 0kts
25-Nov-17 08:10 36.079755 -115.147178 62 2188ft 2kts
25-Nov-17 08:11 36.079497 -115.147802 62 2188ft 0kts
25-Nov-17 08:12 36.079497 -115.147802 62 2188ft 0kts
25-Nov-17 08:13 36.079497 -115.147802 62 2188ft 0kts
25-Nov-17 08:14 36.079497 -115.147802 62 2188ft 0kts
25-Nov-17 08:15 36.079439 -115.147655 157 2188ft 4kts
25-Nov-17 08:16 36.077711 -115.148248 273 2188ft 18kts
25-Nov-17 08:17 36.077947 -115.153964 269 2188ft 14kts
25-Nov-17 08:18 36.077940 -115.159072 269 2188ft 16kts
25-Nov-17 08:19 36.077930 -115.165741 269 2188ft 17kts
25-Nov-17 08:20 36.077351 -115.170562 204 2188ft 6kts
25-Nov-17 08:21 36.076707 -115.170934 204 2188ft 10kts
25-Nov-17 08:22 36.076323 -115.162457 90 2189ft 94kts
25-Nov-17 08:23 36.076303 -115.112372 89 3786ft 158kts
25-Nov-17 08:24 36.076314 -115.047147 90 4884ft 228kts
25-Nov-17 08:25 36.069964 -114.958776 120 6790ft 278kts
25-Nov-17 08:26 36.000477 -114.917874 159 9925ft 291kts
25-Nov-17 08:27 35.922356 -114.937403 231 11833ft 342kts
25-Nov-17 08:28 35.858121 -115.028947 227 14757ft 361kts
25-Nov-17 08:29 35.828962 -115.141499 273 17848ft 360kts
25-Nov-17 08:30 35.838085 -115.266443 275 19231ft 368kts
25-Nov-17 08:31 35.848410 -115.393508 275 21149ft 378kts
25-Nov-17 08:32 35.859302 -115.524861 275 23383ft 390kts
25-Nov-17 08:33 35.870897 -115.660032 275 25305ft 403kts
25-Nov-17 08:34 35.882200 -115.799787 274 27040ft 414kts
25-Nov-17 08:35 35.897128 -115.941945 288 28538ft 427kts
25-Nov-17 08:36 35.973596 -116.058142 312 29838ft 448kts
25-Nov-17 08:37 36.064617 -116.165105 312 31363ft 449kts
25-Nov-17 08:38 36.155243 -116.270373 313 33062ft 445kts
25-Nov-17 08:39 36.245022 -116.373965 313 34599ft 440kts
25-Nov-17 08:40 36.334128 -116.477613 313 36024ft 435kts
25-Nov-17 08:41 36.421421 -116.579682 313 37283ft 430kts
25-Nov-17 08:42 36.507778 -116.680765 312 38231ft 428kts
25-Nov-17 08:43 36.599733 -116.774889 323 38242ft 430kts
25-Nov-17 08:44 36.702020 -116.852774 324 38250ft 431kts
25-Nov-17 08:45 36.804233 -116.930767 323 38255ft 431kts
25-Nov-17 08:46 36.906756 -117.008998 323 38261ft 431kts
25-Nov-17 08:47 37.008760 -117.087037 323 38269ft 430kts
25-Nov-17 08:48 37.110901 -117.165349 323 38272ft 431kts
25-Nov-17 08:49 37.213010 -117.244238 323 38278ft 430kts
25-Nov-17 08:50 37.312896 -117.325843 315 38284ft 425kts
25-Nov-17 08:51 37.403046 -117.422077 314 38296ft 424kts
25-Nov-17 08:52 37.485351 -117.525222 292 38309ft 411kts
25-Nov-17 08:53 37.513561 -117.662340 278 38307ft 405kts
25-Nov-17 08:54 37.534952 -117.801605 278 38303ft 404kts
25-Nov-17 08:55 37.555389 -117.940480 278 38299ft 402kts
25-Nov-17 08:56 37.576020 -118.079178 277 38296ft 403kts
25-Nov-17 08:57 37.596267 -118.218601 277 38296ft 403kts
25-Nov-17 08:58 37.616173 -118.357733 277 38304ft 403kts
25-Nov-17 08:59 37.635876 -118.496977 277 38323ft 404kts
25-Nov-17 09:00 37.655479 -118.636878 277 38354ft 404kts
25-Nov-17 09:01 37.674880 -118.776606 277 38381ft 405kts
25-Nov-17 09:02 37.694204 -118.917069 276 38385ft 405kts
25-Nov-17 09:03 37.713311 -119.057237 276 38371ft 405kts
25-Nov-17 09:04 37.732261 -119.197553 275 38351ft 406kts
25-Nov-17 09:05 37.751088 -119.338264 275 38324ft 405kts
25-Nov-17 09:06 37.769663 -119.478400 275 38294ft 404kts
25-Nov-17 09:07 37.788116 -119.618943 275 38265ft 403kts
25-Nov-17 09:08 37.806296 -119.758731 275 38238ft 403kts
25-Nov-17 09:09 37.824317 -119.898635 274 38193ft 403kts
25-Nov-17 09:10 37.842451 -120.038678 274 37638ft 400kts
25-Nov-17 09:11 37.859979 -120.178099 274 34740ft 405kts
25-Nov-17 09:12 37.876372 -120.320416 268 31763ft 404kts
25-Nov-17 09:13 37.862623 -120.457529 257 29366ft 388kts
25-Nov-17 09:14 37.841447 -120.588717 256 27171ft 374kts
25-Nov-17 09:15 37.819835 -120.715957 255 25043ft 363kts
25-Nov-17 09:16 37.798735 -120.838770 255 23081ft 352kts
25-Nov-17 09:17 37.778144 -120.957766 254 21221ft 342kts
25-Nov-17 09:18 37.758086 -121.073328 255 19253ft 328kts
25-Nov-17 09:19 37.738581 -121.185095 254 16987ft 322kts
25-Nov-17 09:20 37.718476 -121.294393 251 15173ft 315kts
25-Nov-17 09:21 37.691649 -121.397113 249 13675ft 281kts
25-Nov-17 09:22 37.668392 -121.485570 249 11790ft 262kts
25-Nov-17 09:23 37.645179 -121.574123 248 10275ft 270kts
25-Nov-17 09:24 37.621370 -121.664974 248 8971ft 274kts
25-Nov-17 09:25 37.610621 -121.758727 262 7882ft 253kts
25-Nov-17 09:26 37.606705 -121.840056 266 6602ft 226kts
25-Nov-17 09:27 37.607428 -121.919114 268 4668ft 224kts
25-Nov-17 09:28 37.608258 -121.997166 272 3929ft 221kts
25-Nov-17 09:29 37.610159 -122.073924 288 2689ft 200kts
25-Nov-17 09:30 37.642489 -122.125937 311 1782ft 181kts
25-Nov-17 09:31 37.671419 -122.169191 310 926ft 143kts
25-Nov-17 09:32 37.696856 -122.207313 312 176ft 141kts
25-Nov-17 09:33 37.710760 -122.226378 2 14ft 15kts
25-Nov-17 09:34 37.711590 -122.223869 43 14ft 14kts
25-Nov-17 09:35 37.714313 -122.220402 71 14ft 8kts
25-Nov-17 09:36 37.711621 -122.217270 128 14ft 20kts
25-Nov-17 09:37 37.711904 -122.213871 112 14ft 7kts
25-Nov-17 09:38 37.712160 -122.212885 34 14ft 0kts
25-Nov-17 09:39 37.712160 -122.212885 34 14ft 0kts
25-Nov-17 09:40 37.712160 -122.212885 34 14ft 0kts
25-Nov-17 09:41 37.712160 -122.212885 34 14ft 0kts
25-Nov-17 09:42 37.712160 -122.212885 34 14ft 0kts
25-Nov-17 09:43 37.712160 -122.212885 34 14ft 0kts

Navigation Log

Ident Type
Flight plan parsing failed, navigation log unavailable